Time;durP1;ratioP1;P1;durP2;ratioP2;P2;SDS_P1;SDS_P2;PMS_P1;PMS_P2;Temp;Humidity;BMP_temperature;BMP_pressure;BME280_temperature;BME280_humidity;BME280_pressure;Samples;Min_cycle;Max_cycle;Signal;HPM_P1;HPM_P2
2022/12/24 00:00:36;;;;;;;26.35;20.17;;;;;;;;;;4993323;28;20076;-60
2022/12/24 00:03:03;;;;;;;32.30;22.40;;;;;;;;;;5008202;28;20075;-57
2022/12/24 00:05:29;;;;;;;26.88;19.85;;;;;;;;;;5008873;28;20474;-58
2022/12/24 00:07:55;;;;;;;31.00;22.15;;;;;;;;;;4316112;28;10000677;-59
2022/12/24 00:10:20;;;;;;;26.98;20.98;;;;;;;;;;5003422;28;20046;-59
2022/12/24 00:12:46;;;;;;;27.30;21.58;;;;;;;;;;5008121;23;20607;-59
2022/12/24 00:15:12;;;;;;;27.35;21.63;;;;;;;;;;5009931;28;20034;-57
2022/12/24 00:17:38;;;;;;;25.15;22.50;;;;;;;;;;5011194;28;20030;-56
2022/12/24 00:20:08;;;;;;;25.38;22.75;;;;;;;;;;5010003;28;20014;-58
2022/12/24 00:22:34;;;;;;;29.02;22.88;;;;;;;;;;5010993;28;20027;-58
2022/12/24 00:25:00;;;;;;;27.55;23.92;;;;;;;;;;4992736;28;20031;-58
2022/12/24 00:27:26;;;;;;;22.40;20.13;;;;;;;;;;4993953;28;20029;-58
2022/12/24 00:29:52;;;;;;;27.88;22.05;;;;;;;;;;4994239;28;20125;-57
2022/12/24 00:32:18;;;;;;;27.17;21.23;;;;;;;;;;4994131;28;20109;-57
2022/12/24 00:34:44;;;;;;;28.42;20.20;;;;;;;;;;5010945;28;20097;-60
2022/12/24 00:37:10;;;;;;;27.77;25.02;;;;;;;;;;5011687;28;20026;-63
2022/12/24 00:39:36;;;;;;;24.42;21.63;;;;;;;;;;5011706;28;20018;-63
2022/12/24 00:42:02;;;;;;;29.67;24.13;;;;;;;;;;5011663;28;20022;-63
2022/12/24 00:44:28;;;;;;;25.00;22.35;;;;;;;;;;5010800;28;20057;-62
2022/12/24 00:46:54;;;;;;;26.83;22.63;;;;;;;;;;5011586;28;20470;-62
2022/12/24 00:49:20;;;;;;;31.58;22.42;;;;;;;;;;5011575;28;20037;-64
2022/12/24 00:51:46;;;;;;;27.48;22.13;;;;;;;;;;4994135;28;20023;-63
2022/12/24 00:54:13;;;;;;;29.15;23.05;;;;;;;;;;5010738;28;20026;-66
2022/12/24 00:56:39;;;;;;;26.88;23.25;;;;;;;;;;4994030;28;20037;-63
2022/12/24 00:59:05;;;;;;;33.53;23.90;;;;;;;;;;5011624;28;20030;-63
2022/12/24 01:01:31;;;;;;;27.10;21.77;;;;;;;;;;5011543;28;20056;-63
2022/12/24 01:06:42;;;;;;;33.63;22.45;;;;;;;;;;5011823;28;20037;-62
2022/12/24 01:09:11;;;;;;;32.13;23.27;;;;;;;;;;5011396;28;20079;-64
2022/12/24 01:11:37;;;;;;;38.47;25.35;;;;;;;;;;4993710;28;20026;-63
2022/12/24 01:14:03;;;;;;;31.63;19.92;;;;;;;;;;5012872;28;20034;-66
2022/12/24 01:16:29;;;;;;;35.08;20.08;;;;;;;;;;5014969;28;20030;-62
2022/12/24 01:18:56;;;;;;;34.33;18.45;;;;;;;;;;5015074;28;20025;-63
2022/12/24 01:21:22;;;;;;;39.30;20.10;;;;;;;;;;5015282;28;20021;-63
2022/12/24 01:23:48;;;;;;;34.33;20.05;;;;;;;;;;5014364;28;20026;-64
2022/12/24 01:26:17;;;;;;;36.63;19.15;;;;;;;;;;4997746;28;20084;-62
2022/12/24 01:28:43;;;;;;;31.88;17.92;;;;;;;;;;4997528;28;20033;-62
2022/12/24 01:31:13;;;;;;;36.50;19.00;;;;;;;;;;4997554;28;20390;-63
2022/12/24 01:33:39;;;;;;;26.50;16.48;;;;;;;;;;4996621;28;20371;-59
2022/12/24 01:36:05;;;;;;;28.45;15.50;;;;;;;;;;4997439;28;20030;-61
2022/12/24 01:38:31;;;;;;;32.85;15.52;;;;;;;;;;4997260;28;20032;-61
2022/12/24 01:43:42;;;;;;;31.35;15.10;;;;;;;;;;5013962;28;20461;-61
2022/12/24 01:46:16;;;;;;;27.27;14.32;;;;;;;;;;4997179;28;20026;-62
2022/12/24 01:48:51;;;;;;;32.55;14.43;;;;;;;;;;5014562;28;20057;-62
2022/12/24 01:51:26;;;;;;;29.85;15.30;;;;;;;;;;5014406;28;20038;-64
2022/12/24 01:53:56;;;;;;;33.60;14.98;;;;;;;;;;4996114;28;20051;-63
2022/12/24 01:56:22;;;;;;;29.85;13.02;;;;;;;;;;5014499;28;20482;-63
2022/12/24 01:58:52;;;;;;;28.55;14.02;;;;;;;;;;5014319;28;20104;-61
2022/12/24 02:01:18;;;;;;;34.15;16.80;;;;;;;;;;4996690;28;20491;-60
2022/12/24 02:03:44;;;;;;;31.50;18.50;;;;;;;;;;4995859;28;20034;-64
2022/12/24 02:06:14;;;;;;;31.63;25.02;;;;;;;;;;5014287;28;20030;-61
2022/12/24 02:08:40;;;;;;;41.10;34.67;;;;;;;;;;5014108;28;20029;-61
2022/12/24 02:11:10;;;;;;;40.75;36.65;;;;;;;;;;5014201;28;20029;-62
2022/12/24 02:13:37;;;;;;;40.53;36.13;;;;;;;;;;4995781;28;20033;-61
2022/12/24 02:16:27;;;;;;;39.65;34.88;;;;;;;;;;4996868;28;20126;-61
2022/12/24 02:18:53;;;;;;;38.08;33.85;;;;;;;;;;4986532;28;20041;-59
2022/12/24 02:21:28;;;;;;;35.05;27.33;;;;;;;;;;5014186;28;20391;-59
2022/12/24 02:24:13;;;;;;;33.25;24.58;;;;;;;;;;5013206;28;20470;-61
2022/12/24 02:26:42;;;;;;;31.77;22.58;;;;;;;;;;4995877;28;20072;-61
2022/12/24 02:29:36;;;;;;;36.85;22.20;;;;;;;;;;5013941;28;20025;-61
2022/12/24 02:32:04;;;;;;;43.90;21.63;;;;;;;;;;5013859;28;20119;-67
2022/12/24 02:34:30;;;;;;;33.05;20.20;;;;;;;;;;5012817;28;20026;-63
2022/12/24 02:37:02;;;;;;;30.33;19.90;;;;;;;;;;4996088;28;20040;-62
2022/12/24 02:39:41;;;;;;;30.45;19.45;;;;;;;;;;5013565;28;20128;-64
2022/12/24 02:42:08;;;;;;;30.17;19.02;;;;;;;;;;5013393;28;20083;-61
2022/12/24 02:44:45;;;;;;;33.95;20.33;;;;;;;;;;5012604;28;20056;-63
2022/12/24 02:47:12;;;;;;;29.98;19.20;;;;;;;;;;4995817;28;20022;-61
2022/12/24 02:49:38;;;;;;;33.97;19.52;;;;;;;;;;5013269;28;20033;-63
2022/12/24 02:52:05;;;;;;;39.47;21.88;;;;;;;;;;5013334;28;20497;-62
2022/12/24 02:54:31;;;;;;;28.00;20.30;;;;;;;;;;4994939;28;20112;-63
2022/12/24 02:57:08;;;;;;;35.47;22.35;;;;;;;;;;5013251;28;20149;-62
2022/12/24 02:59:52;;;;;;;28.42;20.17;;;;;;;;;;4995677;28;20038;-64
2022/12/24 03:02:37;;;;;;;28.15;20.85;;;;;;;;;;4995658;28;20371;-61
2022/12/24 03:05:03;;;;;;;36.50;22.13;;;;;;;;;;5012829;28;20022;-62
2022/12/24 03:07:34;;;;;;;39.28;22.02;;;;;;;;;;5013235;28;20029;-61
2022/12/24 03:10:03;;;;;;;33.88;21.80;;;;;;;;;;5013106;28;20462;-62
2022/12/24 03:12:31;;;;;;;30.88;21.80;;;;;;;;;;4995458;28;20117;-62
2022/12/24 03:14:58;;;;;;;31.35;20.95;;;;;;;;;;4994658;28;20112;-61
2022/12/24 03:17:23;;;;;;;28.95;20.48;;;;;;;;;;4995356;28;20026;-61
2022/12/24 03:19:49;;;;;;;40.45;21.98;;;;;;;;;;5012780;28;20032;-64
2022/12/24 03:22:17;;;;;;;27.33;18.70;;;;;;;;;;4995310;28;20025;-60
2022/12/24 03:24:43;;;;;;;33.63;19.70;;;;;;;;;;5012200;28;20116;-63
2022/12/24 03:27:11;;;;;;;31.48;20.58;;;;;;;;;;5012915;28;20058;-64
2022/12/24 03:29:38;;;;;;;35.70;20.55;;;;;;;;;;4995272;28;20128;-63
2022/12/24 03:32:04;;;;;;;31.83;19.97;;;;;;;;;;4995169;28;20026;-67
2022/12/24 03:34:31;;;;;;;35.15;20.00;;;;;;;;;;5011879;28;20275;-61
2022/12/24 03:36:57;;;;;;;40.42;21.92;;;;;;;;;;5012318;28;20105;-61
2022/12/24 03:39:23;;;;;;;30.92;18.98;;;;;;;;;;4994838;28;20402;-65
2022/12/24 03:41:49;;;;;;;37.60;20.10;;;;;;;;;;4994922;28;20026;-59
2022/12/24 03:44:15;;;;;;;27.05;17.88;;;;;;;;;;5011580;28;20030;-62
2022/12/24 03:46:41;;;;;;;34.90;20.38;;;;;;;;;;4994884;28;20022;-61
2022/12/24 03:49:07;;;;;;;32.83;17.65;;;;;;;;;;5012791;28;20108;-62
2022/12/24 03:51:33;;;;;;;34.92;17.67;;;;;;;;;;5012330;28;20436;-59
2022/12/24 03:53:59;;;;;;;27.77;16.42;;;;;;;;;;4993920;28;20026;-61
2022/12/24 03:56:25;;;;;;;40.53;17.85;;;;;;;;;;4994618;28;20371;-63
2022/12/24 03:58:52;;;;;;;39.58;16.23;;;;;;;;;;4994629;28;20026;-61
2022/12/24 04:01:18;;;;;;;28.88;13.40;;;;;;;;;;5012238;28;20021;-61
2022/12/24 04:03:44;;;;;;;31.60;12.45;;;;;;;;;;4993631;28;20025;-62
2022/12/24 04:06:12;;;;;;;36.38;16.83;;;;;;;;;;5012111;28;20068;-62
2022/12/24 04:08:38;;;;;;;34.40;14.70;;;;;;;;;;5012135;28;20105;-63
2022/12/24 04:11:05;;;;;;;26.80;13.27;;;;;;;;;;4994432;28;20466;-61
2022/12/24 04:13:31;;;;;;;36.75;14.65;;;;;;;;;;4993431;28;20116;-61
2022/12/24 04:16:01;;;;;;;32.17;14.48;;;;;;;;;;5011916;28;20125;-63
2022/12/24 04:18:27;;;;;;;26.35;14.98;;;;;;;;;;5012096;28;20462;-64
2022/12/24 04:20:53;;;;;;;30.67;13.60;;;;;;;;;;5011901;28;20032;-63
2022/12/24 04:23:20;;;;;;;26.52;14.32;;;;;;;;;;4993550;28;20026;-62
2022/12/24 04:25:46;;;;;;;32.97;15.70;;;;;;;;;;4994226;28;20030;-64
2022/12/24 04:28:12;;;;;;;33.67;15.43;;;;;;;;;;4994275;28;20022;-64
2022/12/24 04:30:39;;;;;;;31.45;13.70;;;;;;;;;;5010858;28;20492;-60
2022/12/24 04:33:05;;;;;;;36.03;15.07;;;;;;;;;;5011407;28;20494;-59
2022/12/24 04:35:31;;;;;;;33.65;14.77;;;;;;;;;;5012030;28;20034;-61
2022/12/24 04:37:57;;;;;;;30.98;16.10;;;;;;;;;;4994513;28;20026;-59
2022/12/24 04:40:23;;;;;;;31.35;15.77;;;;;;;;;;4993506;28;20026;-61
2022/12/24 04:42:49;;;;;;;30.27;14.05;;;;;;;;;;5012143;28;20470;-65
2022/12/24 04:45:16;;;;;;;31.35;14.77;;;;;;;;;;5011516;28;20029;-62
2022/12/24 04:47:42;;;;;;;37.30;17.30;;;;;;;;;;5012383;28;20501;-61
2022/12/24 04:50:08;;;;;;;36.17;15.20;;;;;;;;;;5015882;28;20033;-62
2022/12/24 04:52:34;;;;;;;35.60;15.95;;;;;;;;;;4998364;28;20026;-64
2022/12/24 04:55:00;;;;;;;32.55;16.80;;;;;;;;;;5015161;28;20386;-62
2022/12/24 04:57:26;;;;;;;36.88;16.25;;;;;;;;;;5015898;28;20042;-64
2022/12/24 04:59:52;;;;;;;39.70;18.35;;;;;;;;;;5015799;28;20061;-64
2022/12/24 05:02:18;;;;;;;33.90;16.05;;;;;;;;;;5015604;28;20028;-64
2022/12/24 05:04:44;;;;;;;30.85;16.33;;;;;;;;;;4997347;28;20022;-63
2022/12/24 05:07:10;;;;;;;33.85;16.83;;;;;;;;;;5015601;28;20088;-63
2022/12/24 05:09:36;;;;;;;35.25;16.23;;;;;;;;;;4998060;28;20030;-62
2022/12/24 05:12:02;;;;;;;38.67;16.33;;;;;;;;;;5015623;28;20026;-64
2022/12/24 05:14:28;;;;;;;29.42;17.05;;;;;;;;;;5014668;28;20038;-63
2022/12/24 05:16:54;;;;;;;31.50;17.88;;;;;;;;;;4998053;28;20080;-62
2022/12/24 05:19:20;;;;;;;32.53;17.05;;;;;;;;;;5015516;28;20029;-64
2022/12/24 05:26:20;;;;;;;30.77;16.30;;;;;;;;;;5015542;28;20101;-63
2022/12/24 05:27:16;;;;;;;37.15;16.92;;;;;;;;;;5015214;28;20041;-62
2022/12/24 05:29:42;;;;;;;34.60;18.63;;;;;;;;;;4998063;28;20398;-63
2022/12/24 05:32:08;;;;;;;29.35;17.23;;;;;;;;;;5015137;28;20026;-62
2022/12/24 05:34:34;;;;;;;33.95;17.40;;;;;;;;;;5014472;28;20037;-64
2022/12/24 05:37:00;;;;;;;33.78;16.77;;;;;;;;;;5015213;28;20103;-64
2022/12/24 05:39:26;;;;;;;38.90;17.27;;;;;;;;;;5014944;28;20053;-63
2022/12/24 05:41:52;;;;;;;40.47;19.35;;;;;;;;;;4996376;28;20069;-64
2022/12/24 05:44:18;;;;;;;35.78;17.67;;;;;;;;;;5014024;28;20040;-62
2022/12/24 05:46:45;;;;;;;30.52;17.13;;;;;;;;;;5015113;28;20462;-63
2022/12/24 05:49:11;;;;;;;42.45;17.90;;;;;;;;;;5014712;28;20029;-61
2022/12/24 05:51:39;;;;;;;38.58;19.48;;;;;;;;;;5014923;28;20033;-65
2022/12/24 05:54:05;;;;;;;30.23;18.10;;;;;;;;;;4996625;28;20030;-62
2022/12/24 05:56:31;;;;;;;33.88;17.55;;;;;;;;;;5014762;28;20034;-64
2022/12/24 05:58:57;;;;;;;40.22;18.70;;;;;;;;;;5014712;28;20402;-62
2022/12/24 06:01:24;;;;;;;41.85;18.42;;;;;;;;;;5014731;28;20026;-64
2022/12/24 06:03:50;;;;;;;37.83;16.92;;;;;;;;;;5013752;28;20025;-64
2022/12/24 06:06:18;;;;;;;42.65;18.45;;;;;;;;;;5014654;28;20026;-64
2022/12/24 06:08:44;;;;;;;31.17;17.80;;;;;;;;;;5014474;28;20108;-64
2022/12/24 06:11:12;;;;;;;33.67;18.85;;;;;;;;;;5014533;28;20033;-63
2022/12/24 06:13:38;;;;;;;39.35;21.73;;;;;;;;;;5033422;23;20045;-64
2022/12/24 06:16:04;;;;;;;39.60;19.75;;;;;;;;;;5032574;28;20021;-62
2022/12/24 06:18:31;;;;;;;31.98;19.45;;;;;;;;;;5032523;28;20494;-64
2022/12/24 06:20:58;;;;;;;32.67;17.33;;;;;;;;;;5032775;28;20439;-65
2022/12/24 06:23:24;;;;;;;35.97;20.65;;;;;;;;;;5031886;28;20378;-64
2022/12/24 06:25:51;;;;;;;41.58;21.52;;;;;;;;;;5032387;28;20072;-61
2022/12/24 06:28:17;;;;;;;42.20;20.38;;;;;;;;;;5031496;28;20455;-63
2022/12/24 06:30:47;;;;;;;44.28;19.05;;;;;;;;;;5014579;28;20155;-64
2022/12/24 06:33:13;;;;;;;43.40;21.45;;;;;;;;;;5031467;28;20473;-62
2022/12/24 06:35:40;;;;;;;35.72;21.80;;;;;;;;;;5032345;28;20455;-62
2022/12/24 06:38:06;;;;;;;40.72;36.72;;;;;;;;;;5030648;28;20618;-62
2022/12/24 06:40:32;;;;;;;48.40;43.03;;;;;;;;;;5032048;28;20044;-64
2022/12/24 06:42:58;;;;;;;45.83;41.10;;;;;;;;;;5031798;28;20026;-65
2022/12/24 06:45:24;;;;;;;46.13;41.15;;;;;;;;;;5031902;28;20106;-60
2022/12/24 06:47:50;;;;;;;50.10;41.65;;;;;;;;;;5032287;28;20022;-64
2022/12/24 06:50:16;;;;;;;46.42;41.47;;;;;;;;;;5031863;28;20088;-62
2022/12/24 06:52:42;;;;;;;45.78;40.17;;;;;;;;;;5031958;28;20040;-62
2022/12/24 06:55:08;;;;;;;44.10;39.25;;;;;;;;;;5031271;28;20022;-62
2022/12/24 06:57:34;;;;;;;41.42;37.13;;;;;;;;;;5031965;28;20025;-62
2022/12/24 07:00:00;;;;;;;48.67;39.42;;;;;;;;;;5031688;28;20099;-62
2022/12/24 07:02:26;;;;;;;43.03;38.40;;;;;;;;;;5031810;28;20033;-64
2022/12/24 07:04:52;;;;;;;46.80;41.83;;;;;;;;;;5031019;28;20493;-62
2022/12/24 07:07:18;;;;;;;44.70;40.30;;;;;;;;;;5031575;28;20029;-61
2022/12/24 07:09:44;;;;;;;43.70;38.42;;;;;;;;;;5031665;28;20382;-63
2022/12/24 07:12:10;;;;;;;45.45;40.03;;;;;;;;;;5031109;28;20022;-63
2022/12/24 07:14:36;;;;;;;44.10;39.60;;;;;;;;;;5012976;28;20087;-61
2022/12/24 07:17:02;;;;;;;47.05;42.55;;;;;;;;;;5031421;28;20124;-63
2022/12/24 07:19:28;;;;;;;49.13;43.95;;;;;;;;;;5031471;28;20025;-60
2022/12/24 07:21:54;;;;;;;48.83;44.20;;;;;;;;;;5031503;28;20093;-62
2022/12/24 07:24:20;;;;;;;59.30;50.97;;;;;;;;;;5012987;28;20025;-64
2022/12/24 07:26:46;;;;;;;54.45;48.95;;;;;;;;;;5031887;28;20026;-59
2022/12/24 07:29:12;;;;;;;55.25;50.42;;;;;;;;;;5031415;28;20109;-55
2022/12/24 07:31:38;;;;;;;54.58;49.60;;;;;;;;;;5031367;28;20037;-60
2022/12/24 07:34:04;;;;;;;59.15;53.42;;;;;;;;;;5030882;28;20025;-60
2022/12/24 07:36:30;;;;;;;56.45;50.97;;;;;;;;;;5011655;28;20484;-63
2022/12/24 07:38:56;;;;;;;62.80;56.85;;;;;;;;;;5030913;28;20030;-62
2022/12/24 07:41:22;;;;;;;61.60;56.08;;;;;;;;;;5031021;28;20108;-62
2022/12/24 07:43:48;;;;;;;64.25;58.15;;;;;;;;;;5030317;28;20052;-60
2022/12/24 07:46:14;;;;;;;72.75;58.83;;;;;;;;;;5031288;28;20469;-60
2022/12/24 07:48:41;;;;;;;62.28;57.03;;;;;;;;;;5030803;28;20025;-62
2022/12/24 07:51:08;;;;;;;58.92;53.70;;;;;;;;;;5030870;28;20037;-62
2022/12/24 07:53:34;;;;;;;57.50;52.50;;;;;;;;;;5012160;28;20029;-62
2022/12/24 07:56:00;;;;;;;58.58;52.85;;;;;;;;;;5012892;28;20456;-62
2022/12/24 07:58:26;;;;;;;57.53;50.55;;;;;;;;;;5030777;28;20056;-62
2022/12/24 08:00:59;;;;;;;51.03;46.03;;;;;;;;;;5030503;28;20084;-59
2022/12/24 08:03:25;;;;;;;48.67;44.25;;;;;;;;;;5029529;28;20079;-61
2022/12/24 08:05:51;;;;;;;47.47;42.65;;;;;;;;;;5030639;28;20025;-60
2022/12/24 08:08:17;;;;;;;52.45;43.22;;;;;;;;;;5030270;28;20051;-66
2022/12/24 08:10:44;;;;;;;51.03;45.90;;;;;;;;;;5030189;28;20021;-65
2022/12/24 08:13:10;;;;;;;60.75;44.13;;;;;;;;;;5029522;28;20030;-66
2022/12/24 08:15:36;;;;;;;49.03;44.33;;;;;;;;;;5030416;28;20022;-66
2022/12/24 08:18:02;;;;;;;46.80;42.33;;;;;;;;;;5030646;28;20051;-65
2022/12/24 08:20:28;;;;;;;45.47;41.45;;;;;;;;;;5012956;28;20385;-65
2022/12/24 08:22:54;;;;;;;47.20;42.88;;;;;;;;;;5029428;28;20048;-65
2022/12/24 08:25:20;;;;;;;45.22;40.97;;;;;;;;;;5012156;28;20034;-67
2022/12/24 08:27:47;;;;;;;48.30;43.17;;;;;;;;;;5030320;28;20057;-66
2022/12/24 08:30:13;;;;;;;43.30;39.10;;;;;;;;;;5030412;28;20053;-67
2022/12/24 08:32:39;;;;;;;44.58;40.00;;;;;;;;;;5030248;28;20544;-65
2022/12/24 08:35:06;;;;;;;42.65;38.22;;;;;;;;;;5029531;28;20437;-66
2022/12/24 08:37:32;;;;;;;44.20;38.17;;;;;;;;;;5030216;28;20104;-65
2022/12/24 08:39:58;;;;;;;44.67;40.13;;;;;;;;;;5012699;28;20126;-64
2022/12/24 08:42:24;;;;;;;44.83;40.13;;;;;;;;;;5030284;28;20047;-65
2022/12/24 08:44:50;;;;;;;45.20;40.47;;;;;;;;;;5029460;28;20497;-67
2022/12/24 08:47:16;;;;;;;42.97;38.33;;;;;;;;;;5012166;28;20056;-66
2022/12/24 08:49:42;;;;;;;42.67;38.30;;;;;;;;;;5012345;28;20056;-66
2022/12/24 08:52:08;;;;;;;40.83;36.83;;;;;;;;;;5030135;28;20466;-64
2022/12/24 08:54:34;;;;;;;43.95;39.58;;;;;;;;;;5011484;28;20167;-66
2022/12/24 08:57:00;;;;;;;43.40;38.88;;;;;;;;;;5030051;28;20394;-65
2022/12/24 08:59:26;;;;;;;42.08;37.60;;;;;;;;;;5012519;28;20028;-66
2022/12/24 09:01:51;;;;;;;41.70;37.38;;;;;;;;;;5030116;28;20617;-65
2022/12/24 09:04:19;;;;;;;40.70;35.88;;;;;;;;;;5029020;28;20081;-64
2022/12/24 09:06:45;;;;;;;46.28;38.35;;;;;;;;;;5029910;28;20021;-65
2022/12/24 09:09:11;;;;;;;43.05;38.40;;;;;;;;;;5030184;28;20032;-65
2022/12/24 09:11:37;;;;;;;41.15;36.90;;;;;;;;;;5030070;28;20025;-65
2022/12/24 09:14:03;;;;;;;41.95;37.50;;;;;;;;;;5029088;28;20033;-66
2022/12/24 09:16:29;;;;;;;43.78;34.70;;;;;;;;;;5011987;28;20037;-65
2022/12/24 09:18:56;;;;;;;36.33;32.40;;;;;;;;;;5029692;28;20104;-65
2022/12/24 09:21:22;;;;;;;39.00;34.78;;;;;;;;;;5029776;28;20109;-65
2022/12/24 09:23:48;;;;;;;37.92;33.10;;;;;;;;;;5011352;28;20120;-66
2022/12/24 09:26:22;;;;;;;38.25;32.60;;;;;;;;;;5011816;28;20052;-65
2022/12/24 09:28:48;;;;;;;43.15;32.30;;;;;;;;;;5029555;28;20025;-65
2022/12/24 09:31:15;;;;;;;32.65;29.15;;;;;;;;;;5029766;28;20453;-66
2022/12/24 09:33:41;;;;;;;41.15;30.63;;;;;;;;;;5011382;28;20104;-66
2022/12/24 09:36:08;;;;;;;40.47;28.75;;;;;;;;;;5033179;28;20112;-65
2022/12/24 09:38:34;;;;;;;34.22;28.55;;;;;;;;;;5015120;28;20033;-65
2022/12/24 09:41:01;;;;;;;33.55;28.85;;;;;;;;;;5015270;28;20040;-66
2022/12/24 09:43:29;;;;;;;38.72;28.50;;;;;;;;;;5014577;28;20437;-66
2022/12/24 09:46:02;;;;;;;39.58;27.70;;;;;;;;;;5015276;28;20025;-67
2022/12/24 09:48:29;;;;;;;34.95;27.05;;;;;;;;;;5032936;28;20462;-67
2022/12/24 09:50:55;;;;;;;39.58;29.85;;;;;;;;;;5015384;28;20018;-63
2022/12/24 09:53:24;;;;;;;37.70;28.02;;;;;;;;;;5014358;28;20040;-61
2022/12/24 09:55:52;;;;;;;36.80;28.38;;;;;;;;;;5015166;28;20086;-63
2022/12/24 09:58:36;;;;;;;30.95;26.92;;;;;;;;;;5033070;28;20480;-63
2022/12/24 10:01:02;;;;;;;30.15;24.70;;;;;;;;;;5032998;28;20537;-62
2022/12/24 10:03:28;;;;;;;32.65;24.83;;;;;;;;;;4662896;28;10000175;-63
2022/12/24 10:06:00;;;;;;;30.73;23.52;;;;;;;;;;5028650;28;20112;-63
2022/12/24 10:08:32;;;;;;;31.00;22.25;;;;;;;;;;5011506;28;20022;-63
2022/12/24 10:11:11;;;;;;;32.08;20.10;;;;;;;;;;5011497;28;20079;-63
2022/12/24 10:13:55;;;;;;;37.53;20.58;;;;;;;;;;5028151;28;20037;-63
2022/12/24 10:16:45;;;;;;;34.65;20.98;;;;;;;;;;5028566;28;20033;-63
2022/12/24 10:19:30;;;;;;;35.83;21.27;;;;;;;;;;5028960;28;20049;-63
2022/12/24 10:22:05;;;;;;;37.08;21.15;;;;;;;;;;5028923;28;20046;-64
2022/12/24 10:24:36;;;;;;;36.22;21.83;;;;;;;;;;5028000;28;20033;-63
2022/12/24 10:27:05;;;;;;;27.65;20.17;;;;;;;;;;5010954;28;20048;-64
2022/12/24 10:29:31;;;;;;;;;;;;;;;;;;5013275;28;20022;-64
2022/12/24 10:32:09;;;;;;;27.98;19.33;;;;;;;;;;5013327;28;19916;-63
2022/12/24 10:34:43;;;;;;;36.65;18.30;;;;;;;;;;5031341;28;20398;-64
2022/12/24 10:37:30;;;;;;;33.05;21.00;;;;;;;;;;5031792;28;20025;-63
2022/12/24 10:39:57;;;;;;;34.05;18.45;;;;;;;;;;5031906;28;20045;-63
2022/12/24 10:42:24;;;;;;;28.27;19.73;;;;;;;;;;5032035;28;20029;-63
2022/12/24 10:44:54;;;;;;;35.35;18.65;;;;;;;;;;5013093;28;20021;-64
2022/12/24 10:47:21;;;;;;;28.73;17.70;;;;;;;;;;5030853;28;20129;-66
2022/12/24 10:49:51;;;;;;;34.05;21.67;;;;;;;;;;5031787;28;20071;-64
2022/12/24 10:52:20;;;;;;;28.85;19.10;;;;;;;;;;4682128;28;10000547;-64
2022/12/24 10:55:05;;;;;;;26.70;19.00;;;;;;;;;;5010291;28;20029;-64
2022/12/24 10:57:31;;;;;;;34.83;20.30;;;;;;;;;;5028715;28;20037;-65
2022/12/24 10:59:58;;;;;;;28.70;19.63;;;;;;;;;;5028438;28;20021;-65
2022/12/24 11:02:31;;;;;;;39.80;22.25;;;;;;;;;;5028405;28;20442;-64
2022/12/24 11:05:00;;;;;;;31.92;21.13;;;;;;;;;;5027342;28;20060;-64
2022/12/24 11:07:27;;;;;;;33.80;19.67;;;;;;;;;;5028502;28;20107;-64
2022/12/24 11:09:57;;;;;;;42.80;20.35;;;;;;;;;;5028228;28;20025;-64
2022/12/24 11:12:27;;;;;;;39.70;23.20;;;;;;;;;;5028464;28;20028;-63
2022/12/24 11:15:04;;;;;;;39.22;23.17;;;;;;;;;;5027873;28;20037;-64
2022/12/24 11:17:31;;;;;;;33.33;19.73;;;;;;;;;;5009997;28;20500;-64
2022/12/24 11:19:57;;;;;;;32.40;20.83;;;;;;;;;;5010402;28;20036;-64
2022/12/24 11:22:23;;;;;;;30.10;19.00;;;;;;;;;;5010632;28;20041;-64
2022/12/24 11:24:57;;;;;;;35.40;20.88;;;;;;;;;;5009140;28;20663;-64
2022/12/24 11:27:33;;;;;;;31.52;21.05;;;;;;;;;;5028203;28;20013;-65
2022/12/24 11:30:18;;;;;;;35.70;20.27;;;;;;;;;;5027568;28;20100;-65
2022/12/24 11:32:45;;;;;;;29.85;18.75;;;;;;;;;;5027844;28;20030;-64
2022/12/24 11:35:21;;;;;;;28.48;18.70;;;;;;;;;;5027221;28;20029;-64
2022/12/24 11:37:48;;;;;;;35.83;21.00;;;;;;;;;;5009968;28;20136;-64
2022/12/24 11:40:21;;;;;;;37.13;20.30;;;;;;;;;;5028243;28;20615;-64
2022/12/24 11:42:52;;;;;;;25.67;18.58;;;;;;;;;;4662384;28;10000429;-64
2022/12/24 11:45:18;;;;;;;33.17;19.48;;;;;;;;;;5007047;28;20033;-64
2022/12/24 11:47:45;;;;;;;31.10;19.50;;;;;;;;;;5007999;28;20029;-64
2022/12/24 11:50:23;;;;;;;35.53;19.83;;;;;;;;;;4990260;28;20390;-64
2022/12/24 11:52:51;;;;;;;31.95;21.15;;;;;;;;;;4989638;28;20435;-64
2022/12/24 11:55:36;;;;;;;33.38;20.10;;;;;;;;;;4989485;28;20091;-63
2022/12/24 11:58:15;;;;;;;31.30;20.70;;;;;;;;;;5008137;28;20026;-64
2022/12/24 12:00:41;;;;;;;34.22;19.95;;;;;;;;;;5009484;28;20068;-64
2022/12/24 12:03:16;;;;;;;35.00;19.30;;;;;;;;;;5008377;28;20033;-64
2022/12/24 12:05:42;;;;;;;30.98;19.95;;;;;;;;;;5028079;28;20021;-63
2022/12/24 12:08:15;;;;;;;40.97;21.92;;;;;;;;;;5028910;28;20032;-64
2022/12/24 12:10:42;;;;;;;29.35;19.98;;;;;;;;;;5028974;28;20257;-64
2022/12/24 12:13:31;;;;;;;30.23;19.92;;;;;;;;;;5010120;28;20061;-64
2022/12/24 12:16:07;;;;;;;26.13;19.20;;;;;;;;;;5043178;23;20046;-63
2022/12/24 12:18:41;;;;;;;34.03;20.55;;;;;;;;;;5029391;28;20091;-62
2022/12/24 12:21:13;;;;;;;32.22;19.85;;;;;;;;;;5031311;28;20044;-61
2022/12/24 12:23:57;;;;;;;34.67;20.05;;;;;;;;;;5029030;28;20030;-63
2022/12/24 12:26:26;;;;;;;29.17;19.13;;;;;;;;;;5011638;28;20029;-64
2022/12/24 12:28:58;;;;;;;36.42;18.92;;;;;;;;;;5010197;28;20034;-61
2022/12/24 12:31:36;;;;;;;36.67;19.98;;;;;;;;;;5011137;28;20033;-62
2022/12/24 12:34:05;;;;;;;38.00;20.00;;;;;;;;;;5010068;28;20026;-63
2022/12/24 12:36:44;;;;;;;40.85;20.08;;;;;;;;;;5010411;28;20022;-61
2022/12/24 12:39:11;;;;;;;30.95;18.10;;;;;;;;;;5011167;28;20034;-61
2022/12/24 12:41:40;;;;;;;34.75;19.23;;;;;;;;;;4993728;28;20075;-63
2022/12/24 12:44:06;;;;;;;36.47;19.52;;;;;;;;;;5010301;28;20026;-63
2022/12/24 12:46:44;;;;;;;33.30;16.83;;;;;;;;;;5011423;28;20029;-63
2022/12/24 12:49:16;;;;;;;28.20;16.88;;;;;;;;;;5011410;28;20026;-63
2022/12/24 12:51:42;;;;;;;33.80;16.20;;;;;;;;;;5011342;28;20029;-61
2022/12/24 12:54:17;;;;;;;30.88;15.60;;;;;;;;;;4992944;28;20029;-61
2022/12/24 12:56:45;;;;;;;39.38;20.17;;;;;;;;;;5011272;28;20022;-62
2022/12/24 12:59:11;;;;;;;;;;;;;;;;;;5011538;28;20156;-61
2022/12/24 13:01:46;;;;;;;27.83;17.10;;;;;;;;;;5011260;28;19988;-63
2022/12/24 13:04:31;;;;;;;31.27;15.88;;;;;;;;;;5009915;28;20033;-62
2022/12/24 13:07:06;;;;;;;27.40;16.75;;;;;;;;;;5010903;28;20026;-61
2022/12/24 13:09:52;;;;;;;29.40;16.73;;;;;;;;;;4995166;28;20498;-62
2022/12/24 13:12:41;;;;;;;28.67;15.75;;;;;;;;;;5014892;28;20482;-63
2022/12/24 13:15:07;;;;;;;32.08;16.40;;;;;;;;;;4991377;28;20076;-64
2022/12/24 13:17:52;;;;;;;33.22;17.33;;;;;;;;;;4997230;28;20045;-61
2022/12/24 13:20:20;;;;;;;27.58;16.30;;;;;;;;;;5014832;28;20030;-63
2022/12/24 13:22:51;;;;;;;32.33;15.85;;;;;;;;;;4997119;28;20030;-62
2022/12/24 13:25:21;;;;;;;28.67;16.40;;;;;;;;;;5013751;28;20033;-63
2022/12/24 13:27:47;;;;;;;29.98;15.88;;;;;;;;;;5014545;28;20486;-62
2022/12/24 13:30:32;;;;;;;29.35;16.33;;;;;;;;;;4996834;28;20034;-62
2022/12/24 13:32:58;;;;;;;27.25;16.55;;;;;;;;;;4996946;28;20470;-63
2022/12/24 13:35:24;;;;;;;32.35;16.95;;;;;;;;;;5013725;28;20026;-61
2022/12/24 13:37:50;;;;;;;31.52;16.58;;;;;;;;;;4996799;28;20025;-63
2022/12/24 13:40:22;;;;;;;32.38;17.10;;;;;;;;;;5014192;28;20021;-63
2022/12/24 13:42:57;;;;;;;30.20;15.55;;;;;;;;;;5014283;28;20493;-64
2022/12/24 13:45:30;;;;;;;36.30;16.70;;;;;;;;;;5013517;28;20474;-62
2022/12/24 13:48:17;;;;;;;27.88;16.08;;;;;;;;;;5014162;28;20100;-62
2022/12/24 13:50:44;;;;;;;30.48;15.85;;;;;;;;;;5014297;28;20029;-61
2022/12/24 13:53:31;;;;;;;31.77;15.45;;;;;;;;;;5013353;28;20109;-63
2022/12/24 13:56:29;;;;;;;32.97;16.88;;;;;;;;;;5014290;28;20049;-61
2022/12/24 13:59:09;;;;;;;34.08;16.38;;;;;;;;;;4992906;28;20066;-62
2022/12/24 14:01:36;;;;;;;25.85;15.55;;;;;;;;;;5015642;28;20057;-63
2022/12/24 14:04:03;;;;;;;29.15;14.20;;;;;;;;;;4319632;28;10000498;-63
2022/12/24 14:06:31;;;;;;;26.45;14.95;;;;;;;;;;5012947;28;20101;-65
2022/12/24 14:09:17;;;;;;;26.08;14.65;;;;;;;;;;4995044;28;20397;-63
2022/12/24 14:11:55;;;;;;;32.88;15.48;;;;;;;;;;4993653;28;20030;-62
2022/12/24 14:14:40;;;;;;;27.23;16.17;;;;;;;;;;5011306;28;20497;-64
2022/12/24 14:17:09;;;;;;;29.98;16.15;;;;;;;;;;5010837;28;20048;-63
2022/12/24 14:19:41;;;;;;;26.55;15.73;;;;;;;;;;5010687;28;20022;-63
2022/12/24 14:22:20;;;;;;;26.65;15.88;;;;;;;;;;4992032;28;20036;-62
2022/12/24 14:24:46;;;;;;;;;;;;;;;;;;5010191;28;20033;-62
2022/12/24 14:27:24;;;;;;;29.00;15.32;;;;;;;;;;5001079;28;19910;-62
2022/12/24 14:29:52;;;;;;;28.50;15.63;;;;;;;;;;5007787;28;20072;-67
2022/12/24 14:32:18;;;;;;;28.42;16.80;;;;;;;;;;4992384;28;20447;-62
2022/12/24 14:34:44;;;;;;;31.90;16.65;;;;;;;;;;5009994;28;20057;-62
2022/12/24 14:37:12;;;;;;;27.73;15.82;;;;;;;;;;4663198;28;10000035;-62